createdAt,value
2019-03-13T00:01:43.852Z,0.80
2019-03-13T00:04:13.894Z,0.83
2019-03-13T00:06:44.707Z,0.80
2019-03-13T00:09:14.583Z,0.80
2019-03-13T00:11:46.407Z,0.90
2019-03-13T00:14:28.466Z,0.80
2019-03-13T00:17:03.948Z,0.77
2019-03-13T00:19:34.317Z,0.83
2019-03-13T00:22:12.477Z,0.70
2019-03-13T00:24:43.319Z,0.80
2019-03-13T00:27:15.048Z,1.13
2019-03-13T00:29:44.917Z,1.53
2019-03-13T00:32:29.569Z,0.80
2019-03-13T00:35:00.661Z,0.83
2019-03-13T00:37:43.106Z,0.80
2019-03-13T00:40:15.050Z,1.10
2019-03-13T00:42:53.643Z,1.03
2019-03-13T00:45:23.619Z,1.00
2019-03-13T00:47:56.266Z,0.90
2019-03-13T00:50:33.538Z,1.07
2019-03-13T00:53:05.330Z,1.10
2019-03-13T00:55:53.387Z,1.20
2019-03-13T00:58:25.875Z,2.03
2019-03-13T01:01:19.160Z,0.80
2019-03-13T01:04:08.109Z,1.00
2019-03-13T01:06:44.903Z,1.10
2019-03-13T01:09:18.690Z,0.90
2019-03-13T01:11:48.481Z,1.03
2019-03-13T01:14:18.770Z,1.83
2019-03-13T01:16:50.657Z,1.17
2019-03-13T01:19:22.299Z,1.10
2019-03-13T01:21:52.178Z,1.20
2019-03-13T01:24:25.751Z,1.10
2019-03-13T01:26:57.476Z,1.17
2019-03-13T01:29:28.133Z,1.20
2019-03-13T01:32:17.005Z,1.10
2019-03-13T01:35:29.265Z,1.30
2019-03-13T01:38:04.811Z,1.33
2019-03-13T01:40:34.721Z,1.10
2019-03-13T01:43:04.511Z,1.10
2019-03-13T01:45:34.283Z,1.20
2019-03-13T01:48:04.062Z,2.27
2019-03-13T01:50:33.867Z,1.10
2019-03-13T01:53:03.647Z,1.10
2019-03-13T01:55:33.531Z,1.90
2019-03-13T01:58:03.299Z,1.10
2019-03-13T02:00:33.069Z,1.20
2019-03-13T02:03:02.954Z,1.10
2019-03-13T02:05:32.819Z,1.80
2019-03-13T02:08:02.673Z,0.90
2019-03-13T02:10:32.780Z,1.10
2019-03-13T02:13:06.048Z,2.13
2019-03-13T02:15:39.882Z,2.00
2019-03-13T02:18:24.354Z,1.50
2019-03-13T02:20:55.369Z,1.70
2019-03-13T02:23:28.077Z,3.10
2019-03-13T02:25:59.158Z,2.27
2019-03-13T02:28:30.233Z,3.70
2019-03-13T02:31:00.642Z,1.57
2019-03-13T02:33:31.333Z,1.73
2019-03-13T02:36:06.774Z,1.13
2019-03-13T02:38:38.304Z,1.50
2019-03-13T02:41:09.350Z,1.80
2019-03-13T02:43:42.639Z,2.07
2019-03-13T02:46:13.514Z,1.20
2019-03-13T02:48:44.270Z,2.70
2019-03-13T02:51:33.067Z,2.57
2019-03-13T02:54:02.893Z,1.60
2019-03-13T02:56:32.674Z,1.30
2019-03-13T02:59:02.471Z,3.13
2019-03-13T03:01:44.218Z,1.43
2019-03-13T03:04:14.008Z,1.37
2019-03-13T03:06:43.804Z,1.43
2019-03-13T03:09:13.585Z,0.90
2019-03-13T03:11:43.394Z,2.67
2019-03-13T03:14:13.168Z,1.77
2019-03-13T03:16:42.932Z,0.93
2019-03-13T03:19:12.713Z,1.67
2019-03-13T03:21:42.453Z,2.40
2019-03-13T03:24:12.226Z,2.30
2019-03-13T03:26:42.149Z,1.20
2019-03-13T03:29:11.961Z,1.17
2019-03-13T03:31:41.736Z,1.10
2019-03-13T03:34:11.530Z,2.03
2019-03-13T03:36:41.289Z,1.20
2019-03-13T03:39:11.123Z,1.10
2019-03-13T03:41:41.271Z,1.03
2019-03-13T03:44:11.084Z,1.17
2019-03-13T03:46:40.938Z,1.63
2019-03-13T03:49:10.883Z,1.17
2019-03-13T03:51:40.729Z,1.47
2019-03-13T03:54:10.589Z,2.00
2019-03-13T03:56:40.389Z,2.30
2019-03-13T03:59:10.171Z,2.10
2019-03-13T04:01:39.923Z,2.10
2019-03-13T04:04:09.704Z,2.03
2019-03-13T04:06:39.467Z,1.07
2019-03-13T04:09:09.257Z,1.07
2019-03-13T04:11:39.226Z,1.40
2019-03-13T04:14:09.046Z,5.17
2019-03-13T04:16:38.814Z,1.50
2019-03-13T04:19:08.608Z,2.10
2019-03-13T04:21:38.357Z,2.33
2019-03-13T04:24:08.259Z,0.80
2019-03-13T04:26:38.053Z,1.80
2019-03-13T04:29:07.852Z,2.63
2019-03-13T04:31:37.647Z,2.60
2019-03-13T04:34:07.451Z,0.90
2019-03-13T04:36:37.220Z,1.73
2019-03-13T04:39:07.204Z,2.17
2019-03-13T04:41:37.263Z,1.73
2019-03-13T04:44:07.146Z,1.10
2019-03-13T04:46:36.978Z,1.20
2019-03-13T04:49:06.751Z,1.77
2019-03-13T04:51:36.625Z,2.33
2019-03-13T04:54:06.383Z,1.20
2019-03-13T04:56:37.230Z,1.83
2019-03-13T04:59:07.074Z,3.43
2019-03-13T05:01:36.856Z,1.40
2019-03-13T05:04:06.761Z,2.90
2019-03-13T05:06:36.571Z,2.97
2019-03-13T05:09:08.677Z,1.97
2019-03-13T05:11:38.446Z,2.77
2019-03-13T05:14:08.356Z,1.80
2019-03-13T05:16:38.127Z,2.53
2019-03-13T05:19:07.903Z,3.50
2019-03-13T05:21:37.747Z,2.80
2019-03-13T05:24:07.708Z,3.17
2019-03-13T05:26:38.841Z,2.93
2019-03-13T05:29:08.760Z,2.63
2019-03-13T05:31:38.509Z,1.90
2019-03-13T05:34:08.318Z,2.50
2019-03-13T05:36:38.169Z,2.23
2019-03-13T05:39:08.307Z,2.73
2019-03-13T05:41:38.453Z,3.47
2019-03-13T05:44:08.213Z,2.97
2019-03-13T05:46:38.054Z,2.73
2019-03-13T05:49:07.854Z,2.87
2019-03-13T05:51:37.650Z,2.40
2019-03-13T05:54:07.506Z,4.10
2019-03-13T05:56:40.916Z,4.97
2019-03-13T05:59:10.877Z,3.30
2019-03-13T06:01:40.797Z,5.53
2019-03-13T06:04:10.577Z,5.67
2019-03-13T06:06:40.341Z,4.27
2019-03-13T06:09:10.139Z,2.67
2019-03-13T06:11:40.097Z,3.37
2019-03-13T06:14:09.893Z,2.80
2019-03-13T06:16:39.669Z,4.10
2019-03-13T06:19:09.480Z,2.73
2019-03-13T06:21:39.270Z,3.83
2019-03-13T06:24:10.044Z,3.90
2019-03-13T06:26:40.016Z,3.87
2019-03-13T06:29:09.796Z,4.77
2019-03-13T06:31:39.578Z,2.93
2019-03-13T06:34:11.472Z,6.00
2019-03-13T06:36:40.955Z,4.33
2019-03-13T06:39:10.722Z,4.87
2019-03-13T06:41:40.523Z,5.33
2019-03-13T06:44:11.384Z,6.13
2019-03-13T06:46:41.148Z,6.27
2019-03-13T06:49:11.003Z,7.70
2019-03-13T06:51:40.789Z,5.57
2019-03-13T06:54:10.625Z,5.60
2019-03-13T06:56:40.521Z,5.57
2019-03-13T06:59:15.368Z,4.60
2019-03-13T07:02:04.005Z,5.10
2019-03-13T07:04:50.994Z,4.30
2019-03-13T07:07:37.340Z,5.40
2019-03-13T07:10:19.802Z,4.27
2019-03-13T07:13:14.908Z,4.83
2019-03-13T07:15:52.987Z,2.83
2019-03-13T07:18:50.736Z,6.30
2019-03-13T07:21:39.559Z,3.70
2019-03-13T07:24:34.677Z,4.00
2019-03-13T07:27:23.481Z,4.50
2019-03-13T07:30:02.277Z,4.93
2019-03-13T07:32:44.967Z,4.63
2019-03-13T07:35:39.681Z,5.17
2019-03-13T07:38:28.755Z,6.33
2019-03-13T07:41:17.591Z,5.17
2019-03-13T07:46:47.651Z,5.97
2019-03-13T07:49:48.429Z,3.93
2019-03-13T07:52:46.767Z,3.63
2019-03-13T07:55:41.542Z,3.73
2019-03-13T07:58:36.536Z,4.53
2019-03-13T08:01:21.836Z,6.27
2019-03-13T08:04:05.982Z,4.07
2019-03-13T08:06:54.856Z,6.93
2019-03-13T08:09:42.489Z,4.83
2019-03-13T08:12:28.231Z,8.10
2019-03-13T08:15:20.102Z,6.07
2019-03-13T08:18:18.274Z,6.03
2019-03-13T08:21:16.356Z,6.17
2019-03-13T08:24:14.400Z,6.37
2019-03-13T08:26:50.713Z,5.57
2019-03-13T08:29:38.767Z,4.73
2019-03-13T08:32:28.534Z,5.83
2019-03-13T08:35:17.807Z,6.10
2019-03-13T08:37:58.991Z,5.83
2019-03-13T08:40:50.809Z,6.83
2019-03-13T08:43:38.825Z,6.85
2019-03-13T08:46:36.912Z,7.28
2019-03-13T08:49:22.870Z,11.35
2019-03-13T08:52:10.570Z,5.57
2019-03-13T08:54:48.961Z,7.33
2019-03-13T08:57:37.772Z,8.60
2019-03-13T09:00:40.017Z,5.40
2019-03-13T09:03:26.738Z,7.80
2019-03-13T09:06:03.494Z,6.53
2019-03-13T09:08:45.865Z,6.70
2019-03-13T09:11:26.903Z,8.00
2019-03-13T09:14:05.003Z,6.60
2019-03-13T09:16:51.951Z,5.58
2019-03-13T09:19:39.848Z,6.70
2019-03-13T09:22:20.932Z,6.17
2019-03-13T09:25:11.780Z,5.22
2019-03-13T09:28:14.588Z,5.75
2019-03-13T09:30:56.919Z,5.50
2019-03-13T09:33:43.952Z,7.17
2019-03-13T09:36:31.535Z,5.80
2019-03-13T09:39:19.307Z,7.20
2019-03-13T09:42:16.868Z,6.77
2019-03-13T09:45:09.618Z,6.62
2019-03-13T09:47:58.450Z,3.20
2019-03-13T09:50:33.839Z,6.70
2019-03-13T09:53:21.589Z,7.53
2019-03-13T09:56:23.320Z,4.92
2019-03-13T09:59:10.919Z,5.37
2019-03-13T10:01:52.145Z,4.33
2019-03-13T10:04:40.611Z,4.20
2019-03-13T10:07:36.684Z,3.80
2019-03-13T10:10:24.333Z,4.90
2019-03-13T10:13:13.133Z,4.50
2019-03-13T10:16:02.583Z,7.42
2019-03-13T10:18:41.720Z,5.95
2019-03-13T10:21:30.619Z,6.55
2019-03-13T10:24:25.964Z,5.95
2019-03-13T10:27:15.463Z,7.40
2019-03-13T10:29:54.258Z,6.60
2019-03-13T10:32:53.252Z,8.03
2019-03-13T10:35:46.148Z,6.55
2019-03-13T10:38:40.896Z,6.47
2019-03-13T10:41:28.845Z,6.50
2019-03-13T10:44:19.033Z,6.10
2019-03-13T10:47:18.046Z,7.60
2019-03-13T10:50:04.567Z,5.00
2019-03-13T10:53:09.984Z,6.28
2019-03-13T10:56:11.985Z,5.55
2019-03-13T11:36:15.436Z,6.47
2019-03-13T11:39:56.720Z,4.95
2019-03-13T11:42:49.570Z,6.67
2019-03-13T11:45:44.949Z,5.08
2019-03-13T11:48:47.338Z,6.65
2019-03-13T11:51:32.952Z,6.05
2019-03-13T11:54:14.509Z,6.12
2019-03-13T11:57:03.888Z,5.87
2019-03-13T12:00:00.568Z,5.40
2019-03-13T12:02:40.924Z,6.40
2019-03-13T12:05:33.687Z,5.80
2019-03-13T12:08:28.607Z,6.15
2019-03-13T12:11:17.534Z,5.80
2019-03-13T12:14:09.188Z,8.70
2019-03-13T12:16:56.549Z,7.85
2019-03-13T12:19:45.484Z,8.98
2019-03-13T12:22:29.234Z,7.90
2019-03-13T12:25:21.322Z,7.08
2019-03-13T12:28:07.875Z,7.05
2019-03-13T12:30:59.148Z,7.40
2019-03-13T12:33:46.829Z,6.37
2019-03-13T12:36:31.908Z,7.05
2019-03-13T12:39:17.061Z,6.92
2019-03-13T12:42:04.904Z,8.60
2019-03-13T12:44:40.542Z,9.05
2019-03-13T12:47:20.919Z,7.70
2019-03-13T12:50:12.444Z,7.27
2019-03-13T12:53:01.316Z,8.48
2019-03-13T12:56:08.357Z,6.97
2019-03-13T12:59:00.257Z,8.63
2019-03-13T13:01:49.066Z,7.35
2019-03-13T13:04:35.322Z,10.03
2019-03-13T13:07:25.634Z,6.43
2019-03-13T13:10:26.829Z,6.77
2019-03-13T13:13:14.702Z,6.20
2019-03-13T13:16:03.524Z,6.78
2019-03-13T13:18:51.299Z,7.45
2019-03-13T13:21:21.732Z,7.70
2019-03-13T13:23:51.583Z,8.10
2019-03-13T13:26:21.595Z,8.93
2019-03-13T13:28:51.381Z,6.90
2019-03-13T13:31:21.341Z,6.72
2019-03-13T13:33:51.161Z,5.50
2019-03-13T13:36:21.010Z,5.60
2019-03-13T13:38:50.921Z,4.15
2019-03-13T13:41:20.821Z,7.65
2019-03-13T13:43:50.627Z,6.03
2019-03-13T13:46:23.306Z,7.37
2019-03-13T13:48:53.122Z,4.45
2019-03-13T13:51:22.970Z,8.08
2019-03-13T13:53:55.589Z,6.17
2019-03-13T13:56:24.512Z,5.67
2019-03-13T13:58:54.633Z,5.80
2019-03-13T14:01:24.555Z,7.40
2019-03-13T14:03:55.394Z,5.30
2019-03-13T14:06:25.284Z,5.20
2019-03-13T14:08:55.060Z,7.75
2019-03-13T14:11:24.968Z,5.77
2019-03-13T14:13:54.749Z,5.53
2019-03-13T14:16:24.555Z,4.05
2019-03-13T14:18:54.400Z,5.40
2019-03-13T14:21:24.352Z,4.17
2019-03-13T14:23:54.206Z,5.92
2019-03-13T14:26:23.982Z,5.62
2019-03-13T14:28:53.765Z,4.87
2019-03-13T14:31:23.630Z,5.15
2019-03-13T14:33:53.418Z,5.00
2019-03-13T14:36:25.285Z,5.60
2019-03-13T14:38:55.204Z,3.75
2019-03-13T14:41:26.569Z,4.97
2019-03-13T14:43:57.339Z,4.25
2019-03-13T14:46:27.935Z,4.03
2019-03-13T14:48:58.070Z,6.37
2019-03-13T14:51:28.336Z,5.27
2019-03-13T14:53:58.162Z,4.37
2019-03-13T14:56:28.039Z,4.67
2019-03-13T14:58:57.827Z,5.08
2019-03-13T15:01:27.817Z,4.75
2019-03-13T15:03:57.771Z,4.67
2019-03-13T15:06:27.595Z,4.47
2019-03-13T15:08:57.436Z,5.55
2019-03-13T15:11:27.338Z,5.00
2019-03-13T15:13:57.159Z,5.70
2019-03-13T15:16:26.964Z,5.15
2019-03-13T15:18:56.752Z,5.45
2019-03-13T15:21:26.544Z,5.65
2019-03-13T15:23:56.335Z,4.75
2019-03-13T15:26:26.126Z,4.80
2019-03-13T15:28:55.923Z,4.75
2019-03-13T15:31:25.736Z,5.97
2019-03-13T15:33:55.581Z,5.37
2019-03-13T15:36:25.342Z,6.03
2019-03-13T15:38:55.143Z,6.08
2019-03-13T15:41:24.900Z,5.78
2019-03-13T15:43:54.863Z,4.75
2019-03-13T15:46:24.669Z,5.67
2019-03-13T15:48:54.523Z,8.03
2019-03-13T15:51:24.410Z,5.12
2019-03-13T15:53:54.227Z,4.80
2019-03-13T15:56:24.070Z,6.58
2019-03-13T15:58:53.867Z,6.83
2019-03-13T16:01:23.647Z,5.85
2019-03-13T16:03:53.471Z,6.13
2019-03-13T16:06:23.368Z,8.58
2019-03-13T16:08:53.207Z,6.40
2019-03-13T16:11:23.004Z,8.58
2019-03-13T16:13:53.064Z,6.30
2019-03-13T16:16:22.978Z,7.53
2019-03-13T16:18:52.891Z,10.10
2019-03-13T16:21:22.682Z,7.00
2019-03-13T16:23:52.594Z,7.50
2019-03-13T16:26:22.465Z,7.67
2019-03-13T16:28:52.402Z,6.25
2019-03-13T16:31:22.327Z,7.67
2019-03-13T16:33:52.109Z,6.28
2019-03-13T16:36:21.947Z,5.97
2019-03-13T16:38:51.850Z,6.62
2019-03-13T16:41:21.650Z,5.72
2019-03-13T16:43:51.504Z,6.50
2019-03-13T16:46:21.610Z,4.85
2019-03-13T16:48:51.556Z,4.80
2019-03-13T16:51:21.547Z,6.67
2019-03-13T16:53:51.741Z,5.97
2019-03-13T16:56:21.701Z,6.03
2019-03-13T16:58:51.551Z,5.22
2019-03-13T17:01:21.322Z,5.92
2019-03-13T17:03:51.175Z,6.90
2019-03-13T17:06:21.055Z,7.17
2019-03-13T17:08:50.898Z,8.90
2019-03-13T17:11:20.703Z,7.62
2019-03-13T17:13:50.792Z,9.25
2019-03-13T17:16:20.690Z,7.60
2019-03-13T17:18:50.534Z,10.28
2019-03-13T17:21:20.442Z,10.00
2019-03-13T17:23:50.322Z,10.75
2019-03-13T17:26:20.159Z,7.33
2019-03-13T17:28:50.505Z,8.08
2019-03-13T17:31:20.841Z,8.40
2019-03-13T17:33:50.638Z,9.90
2019-03-13T17:36:20.458Z,6.05
2019-03-13T17:38:50.332Z,8.78
2019-03-13T17:41:20.195Z,6.12
2019-03-13T17:43:50.010Z,8.43
2019-03-13T17:46:19.931Z,6.35
2019-03-13T17:48:49.860Z,5.60
2019-03-13T17:51:19.759Z,6.78
2019-03-13T17:53:49.632Z,8.75
2019-03-13T17:56:19.533Z,5.72
2019-03-13T17:58:49.462Z,5.87
2019-03-13T18:01:19.330Z,5.22
2019-03-13T18:03:50.046Z,7.28
2019-03-13T18:06:20.099Z,6.87
2019-03-13T18:08:49.976Z,5.55
2019-03-13T18:11:19.938Z,5.15
2019-03-13T18:13:49.828Z,5.25
2019-03-13T18:16:19.689Z,4.00
2019-03-13T18:18:50.795Z,4.37
2019-03-13T18:21:20.674Z,5.20
2019-03-13T18:23:50.590Z,4.90
2019-03-13T18:26:20.539Z,5.72
2019-03-13T18:28:50.430Z,5.67
2019-03-13T18:31:20.297Z,6.47
2019-03-13T18:33:50.234Z,6.28
2019-03-13T18:36:20.167Z,6.62
2019-03-13T18:38:50.165Z,6.37
2019-03-13T18:41:22.959Z,6.53
2019-03-13T18:43:51.554Z,8.55
2019-03-13T18:46:21.352Z,8.33
2019-03-13T18:48:51.246Z,10.45
2019-03-13T18:51:21.118Z,8.73
2019-03-13T18:53:50.942Z,7.20
2019-03-13T18:56:20.852Z,7.00
2019-03-13T18:58:50.650Z,5.33
2019-03-13T19:01:20.523Z,6.97
2019-03-13T19:03:51.238Z,6.63
2019-03-13T19:06:21.162Z,6.03
2019-03-13T19:08:50.988Z,6.40
2019-03-13T19:11:20.876Z,4.70
2019-03-13T19:13:50.840Z,6.80
2019-03-13T19:16:44.136Z,6.47
2019-03-13T19:19:15.653Z,7.27
2019-03-13T19:21:47.854Z,4.10
2019-03-13T19:24:18.331Z,4.20
2019-03-13T19:26:51.064Z,3.07
2019-03-13T19:29:25.438Z,3.47
2019-03-13T19:31:56.137Z,2.23
2019-03-13T19:34:25.994Z,2.53
2019-03-13T19:36:56.689Z,2.83
2019-03-13T19:39:26.599Z,1.63
2019-03-13T19:41:56.646Z,3.07
2019-03-13T19:44:26.640Z,4.07
2019-03-13T19:46:57.313Z,2.83
2019-03-13T19:49:27.210Z,3.17
2019-03-13T19:51:57.630Z,1.80
2019-03-13T19:54:27.662Z,1.93
2019-03-13T19:56:57.900Z,2.53
2019-03-13T19:59:27.793Z,2.80
2019-03-13T20:01:59.608Z,4.67
2019-03-13T20:04:30.671Z,3.47
2019-03-13T20:07:00.849Z,3.77
2019-03-13T20:09:31.515Z,3.00
2019-03-13T20:12:01.385Z,6.40
2019-03-13T20:14:31.763Z,2.83
2019-03-13T20:17:16.332Z,5.03
2019-03-13T20:19:47.149Z,5.20
2019-03-13T20:22:17.110Z,4.37
2019-03-13T20:24:53.685Z,2.87
2019-03-13T20:27:24.048Z,2.40
2019-03-13T20:29:54.064Z,3.40
2019-03-13T20:32:24.414Z,3.63
2019-03-13T20:34:54.949Z,2.80
2019-03-13T20:37:24.949Z,4.57
2019-03-13T20:39:57.676Z,2.93
2019-03-13T20:42:27.695Z,4.77
2019-03-13T20:44:58.308Z,5.47
2019-03-13T20:47:32.169Z,3.40
2019-03-13T20:50:03.563Z,2.77
2019-03-13T20:52:37.046Z,5.13
2019-03-13T20:55:09.035Z,3.27
2019-03-13T20:57:40.876Z,4.37
2019-03-13T21:00:23.599Z,5.15
2019-03-13T21:02:53.958Z,3.27
2019-03-13T21:05:24.455Z,2.77
2019-03-13T21:07:54.391Z,4.03
2019-03-13T21:10:24.849Z,4.08
2019-03-13T21:12:54.851Z,4.05
2019-03-13T21:15:24.998Z,2.80
2019-03-13T21:17:55.096Z,3.33
2019-03-13T21:20:25.023Z,2.95
2019-03-13T21:22:58.084Z,3.83
2019-03-13T21:25:26.742Z,4.78
2019-03-13T21:27:56.764Z,5.35
2019-03-13T21:30:26.690Z,4.15
2019-03-13T21:32:56.709Z,4.28
2019-03-13T21:35:26.627Z,4.58
2019-03-13T21:37:56.704Z,3.70
2019-03-13T21:40:26.618Z,4.62
2019-03-13T21:42:57.067Z,4.33
2019-03-13T21:45:39.998Z,1.57
2019-03-13T21:47:58.550Z,4.50
2019-03-13T21:50:28.649Z,5.70
2019-03-13T21:52:58.746Z,3.10
2019-03-13T21:55:28.679Z,3.40
2019-03-13T21:57:58.806Z,4.20
2019-03-13T22:00:29.243Z,4.55
2019-03-13T22:02:59.309Z,7.70
2019-03-13T22:05:29.292Z,4.53
2019-03-13T22:07:59.338Z,4.83
2019-03-13T22:10:29.132Z,5.37
2019-03-13T22:12:59.333Z,5.35
2019-03-13T22:15:29.850Z,5.95
2019-03-13T22:18:06.632Z,7.90
2019-03-13T22:20:37.691Z,4.95
2019-03-13T22:23:08.040Z,7.12
2019-03-13T22:25:38.234Z,5.20
2019-03-13T22:28:08.666Z,4.78
2019-03-13T22:30:38.904Z,5.92
2019-03-13T22:33:08.919Z,6.05
2019-03-13T22:35:39.645Z,5.97
2019-03-13T22:38:09.772Z,4.70
2019-03-13T22:40:39.755Z,4.67
2019-03-13T22:43:09.755Z,3.25
2019-03-13T22:45:39.708Z,4.20
2019-03-13T22:48:13.523Z,4.85
2019-03-13T22:50:44.413Z,3.75
2019-03-13T22:53:14.284Z,4.25
2019-03-13T22:55:44.251Z,3.87
2019-03-13T22:58:14.072Z,3.80
2019-03-13T23:00:57.088Z,3.12
2019-03-13T23:03:29.791Z,4.42
2019-03-13T23:06:00.874Z,4.45
2019-03-13T23:08:31.607Z,3.30
2019-03-13T23:11:11.929Z,2.40
2019-03-13T23:13:45.225Z,3.00
2019-03-13T23:16:16.578Z,3.45
2019-03-13T23:18:47.731Z,3.70
2019-03-13T23:21:18.476Z,2.98
2019-03-13T23:23:48.521Z,3.40
2019-03-13T23:26:19.211Z,3.60
2019-03-13T23:28:50.052Z,3.80
2019-03-13T23:31:20.769Z,3.45
2019-03-13T23:33:51.562Z,3.98
2019-03-13T23:36:23.498Z,4.00
2019-03-13T23:38:54.029Z,5.50
2019-03-13T23:41:31.410Z,3.65
2019-03-13T23:44:04.438Z,3.80
2019-03-13T23:46:34.566Z,4.30
2019-03-13T23:49:09.046Z,3.50
2019-03-13T23:51:39.318Z,4.60
2019-03-13T23:54:09.869Z,4.33
2019-03-13T23:56:44.371Z,3.65
2019-03-13T23:59:15.104Z,2.80
